Time;durP1;ratioP1;P1;durP2;ratioP2;P2;SDS_P1;SDS_P2;PMS_P1;PMS_P2;Temp;Humidity;BMP_temperature;BMP_pressure;BME280_temperature;BME280_humidity;BME280_pressure;Samples;Min_cycle;Max_cycle;Signal;HPM_P1;HPM_P2
2023/01/16 00:02:06;;;;;;;3.17;1.58;;;;;;;2.12;91.37;97018.94;4989305;28;20510;-81
2023/01/16 00:04:33;;;;;;;2.20;1.73;;;;;;;2.11;91.50;97007.78;4989379;28;20489;-81
2023/01/16 00:06:59;;;;;;;1.85;1.50;;;;;;;2.12;91.24;97004.22;4989107;28;20106;-81
2023/01/16 00:09:24;;;;;;;2.22;1.33;;;;;;;2.17;91.02;97005.50;4989205;28;20126;-81
2023/01/16 00:11:50;;;;;;;2.40;1.55;;;;;;;2.15;91.36;97000.47;4989191;28;20042;-81
2023/01/16 00:14:15;;;;;;;3.63;1.70;;;;;;;2.06;91.00;96993.78;4989545;28;20422;-81
2023/01/16 00:16:41;;;;;;;3.90;1.42;;;;;;;2.08;90.92;97002.16;4988945;28;20038;-81
2023/01/16 00:19:06;;;;;;;1.95;1.40;;;;;;;2.07;91.06;96992.78;4989400;28;20529;-81
2023/01/16 00:21:32;;;;;;;3.00;1.35;;;;;;;2.03;90.84;96994.09;4989779;28;20488;-81
2023/01/16 00:23:59;;;;;;;3.40;1.25;;;;;;;2.09;91.42;96988.22;4986845;28;20034;-80
2023/01/16 00:26:27;;;;;;;3.78;1.60;;;;;;;2.03;90.65;96989.72;4989389;28;20030;-81
2023/01/16 00:28:53;;;;;;;2.97;1.50;;;;;;;2.05;90.67;96980.03;4979506;28;20046;-81
2023/01/16 00:31:19;;;;;;;3.03;1.42;;;;;;;2.05;90.50;96974.06;4989227;28;20045;-81
2023/01/16 00:33:44;;;;;;;3.15;1.50;;;;;;;2.05;90.51;96976.66;4988968;28;20030;-81
2023/01/16 00:36:11;;;;;;;1.70;1.42;;;;;;;2.06;90.50;96978.25;4989116;28;20057;-81
2023/01/16 00:38:37;;;;;;;3.30;1.60;;;;;;;2.02;90.35;96971.81;4987129;28;20035;-81
2023/01/16 00:41:04;;;;;;;3.63;1.95;;;;;;;2.04;90.56;96964.66;4989056;28;20378;-81
2023/01/16 00:43:30;;;;;;;3.15;1.75;;;;;;;1.96;90.73;96952.63;4988395;28;20046;-81
2023/01/16 00:45:56;;;;;;;2.25;1.60;;;;;;;1.95;90.77;96963.13;4988685;28;20529;-81
2023/01/16 00:48:22;;;;;;;3.58;1.60;;;;;;;1.95;91.41;96955.38;4989333;28;20085;-81
2023/01/16 00:50:49;;;;;;;1.70;1.38;;;;;;;1.90;91.17;96955.88;4989241;28;20057;-81
2023/01/16 00:53:15;;;;;;;2.03;1.50;;;;;;;1.83;91.31;96960.94;4988728;28;20056;-81
2023/01/16 00:55:41;;;;;;;1.95;1.50;;;;;;;1.88;91.56;96945.72;4978222;28;20053;-81
2023/01/16 00:58:09;;;;;;;3.40;2.00;;;;;;;1.90;91.66;96947.34;4989171;28;20049;-81
2023/01/16 01:00:37;;;;;;;2.60;1.80;;;;;;;1.91;91.75;96941.97;4988706;28;20073;-81
2023/01/16 01:03:05;;;;;;;3.05;1.50;;;;;;;1.87;91.18;96938.94;4988733;28;20417;-81
2023/01/16 01:05:34;;;;;;;1.30;1.15;;;;;;;1.85;90.69;96930.53;4988749;28;20161;-81
2023/01/16 01:07:59;;;;;;;3.25;1.30;;;;;;;1.85;90.83;96925.38;4989553;28;20057;-81
2023/01/16 01:10:25;;;;;;;1.40;1.30;;;;;;;1.83;91.03;96919.59;4988949;28;20038;-80
2023/01/16 01:12:54;;;;;;;3.00;1.25;;;;;;;1.83;90.77;96922.16;4989439;28;20096;-81
2023/01/16 01:15:20;;;;;;;1.70;1.30;;;;;;;1.84;90.67;96925.56;4988760;28;20046;-81
2023/01/16 01:17:46;;;;;;;2.97;1.50;;;;;;;1.83;91.08;96913.59;4987825;28;20046;-81
2023/01/16 01:20:11;;;;;;;3.42;1.50;;;;;;;1.84;91.57;96916.00;4989082;28;20038;-81
2023/01/16 01:22:37;;;;;;;2.38;1.58;;;;;;;1.83;91.57;96918.78;4987290;28;20073;-81
2023/01/16 01:25:02;;;;;;;4.18;1.48;;;;;;;1.75;91.19;96924.81;4993157;28;20351;-81
2023/01/16 01:27:28;;;;;;;1.40;1.30;;;;;;;1.81;91.50;96921.53;4992130;28;20042;-81
2023/01/16 01:29:53;;;;;;;2.28;1.40;;;;;;;1.85;91.22;96920.19;4992840;28;20034;-81
2023/01/16 01:32:19;;;;;;;2.83;1.60;;;;;;;1.90;90.80;96908.53;4992239;28;20065;-81
2023/01/16 01:34:44;;;;;;;1.80;1.25;;;;;;;1.98;90.81;96909.31;4991704;28;20042;-81
2023/01/16 01:37:10;;;;;;;5.20;1.63;;;;;;;1.99;90.45;96904.94;4992089;28;20042;-81
2023/01/16 01:39:36;;;;;;;1.65;1.42;;;;;;;2.06;90.24;96896.28;4990692;28;20034;-80
2023/01/16 01:44:56;;;;;;;1.60;1.20;;;;;;;2.28;89.14;96886.88;4991686;28;20040;-81
2023/01/16 01:47:37;;;;;;;2.55;1.40;;;;;;;2.34;88.50;96888.75;4991668;28;20038;-81
2023/01/16 01:50:15;;;;;;;3.67;1.20;;;;;;;2.43;88.34;96881.72;4991630;28;20034;-81
2023/01/16 01:52:40;;;;;;;3.65;1.75;;;;;;;2.52;87.36;96869.47;4991137;28;20088;-80
2023/01/16 01:55:12;;;;;;;5.53;1.48;;;;;;;2.56;86.23;96870.72;4991023;28;20414;-81
2023/01/16 01:57:44;;;;;;;2.30;1.20;;;;;;;2.65;86.71;96864.50;4990659;28;20041;-80
2023/01/16 02:00:20;;;;;;;3.53;1.60;;;;;;;2.76;86.46;96858.03;4990799;28;20058;-81
2023/01/16 02:02:58;;;;;;;2.25;1.40;;;;;;;2.77;85.47;96850.09;4989109;28;20034;-81
2023/01/16 02:05:33;;;;;;;2.65;1.27;;;;;;;2.78;85.14;96854.28;4991591;28;20033;-81
2023/01/16 02:08:02;;;;;;;2.17;1.30;;;;;;;2.80;85.47;96835.97;4990456;28;20061;-80
2023/01/16 02:10:39;;;;;;;1.48;1.20;;;;;;;2.87;85.36;96827.28;4989782;28;20046;-81
2023/01/16 02:13:06;;;;;;;2.25;1.30;;;;;;;2.89;85.00;96825.34;4991001;28;20034;-81
2023/01/16 02:15:32;;;;;;;3.10;1.40;;;;;;;2.94;84.75;96823.03;4991444;28;20038;-81
2023/01/16 02:22:16;;;;;;;2.08;1.30;;;;;;;2.95;85.04;96829.81;4979808;28;20494;-81
2023/01/16 02:25:02;;;;;;;1.65;1.20;;;;;;;3.01;86.10;96809.34;4898072;29;20048;-81
2023/01/16 02:27:33;;;;;;;2.20;1.35;;;;;;;3.00;86.09;96803.34;5006863;28;20045;-81
2023/01/16 02:30:12;;;;;;;2.72;1.35;;;;;;;2.97;86.21;96805.50;5026848;28;20041;-81
2023/01/16 02:32:59;;;;;;;3.13;1.55;;;;;;;2.95;86.70;96792.75;5010245;28;20378;-81
2023/01/16 02:35:48;;;;;;;2.63;1.30;;;;;;;2.95;86.76;96772.81;5011095;28;20048;-81
2023/01/16 02:38:37;;;;;;;1.85;1.20;;;;;;;2.79;85.98;96757.50;4982248;28;20046;-81
2023/01/16 02:41:20;;;;;;;2.85;1.13;;;;;;;2.88;85.64;96765.97;5010371;28;20038;-81
2023/01/16 02:44:05;;;;;;;1.33;1.20;;;;;;;2.92;86.38;96756.84;5010689;28;20064;-81
2023/01/16 02:47:19;;;;;;;2.47;1.30;;;;;;;2.89;86.34;96741.69;5009440;28;20370;-80
2023/01/16 02:50:12;;;;;;;1.92;1.17;;;;;;;2.84;86.29;96744.81;5005300;28;20044;-81
2023/01/16 02:52:57;;;;;;;2.05;1.20;;;;;;;2.81;86.31;96734.00;5010306;28;20508;-81
2023/01/16 02:55:39;;;;;;;2.55;1.45;;;;;;;2.78;86.71;96724.03;5010327;28;20038;-81
2023/01/16 02:58:07;;;;;;;2.03;1.17;;;;;;;2.77;86.70;96725.03;5009875;28;20049;-81
2023/01/16 03:00:34;;;;;;;2.60;1.08;;;;;;;2.78;87.01;96717.06;5009535;28;20499;-81
2023/01/16 03:03:00;;;;;;;2.47;1.20;;;;;;;2.72;86.70;96712.63;5010274;28;20112;-81
2023/01/16 03:05:37;;;;;;;1.90;1.25;;;;;;;2.71;86.96;96711.03;5010669;28;20115;-81
2023/01/16 03:08:34;;;;;;;1.58;1.17;;;;;;;2.75;87.14;96714.81;5010336;28;20022;-81
2023/01/16 03:11:24;;;;;;;3.03;1.13;;;;;;;2.78;87.32;96693.75;5009070;28;20072;-81
2023/01/16 03:14:01;;;;;;;1.40;1.30;;;;;;;2.76;86.61;96694.91;5009676;28;20037;-81
2023/01/16 03:16:57;;;;;;;1.85;1.25;;;;;;;2.72;86.33;96697.09;4990737;28;20140;-81
2023/01/16 03:20:03;;;;;;;1.42;0.90;;;;;;;2.69;86.15;96690.47;4989780;28;20026;-81
2023/01/16 03:22:46;;;;;;;2.83;1.20;;;;;;;2.78;86.71;96683.41;4987038;28;20106;-81
2023/01/16 03:25:51;;;;;;;1.63;1.00;;;;;;;2.80;86.62;96672.84;4989633;28;20117;-81
2023/01/16 03:28:43;;;;;;;3.30;1.40;;;;;;;2.80;85.73;96668.47;4987587;28;20045;-81
2023/01/16 03:31:45;;;;;;;4.03;1.33;;;;;;;2.79;86.12;96658.31;4988456;28;20110;-81
2023/01/16 03:34:42;;;;;;;1.02;1.02;;;;;;;2.76;85.75;96651.72;4988193;28;20076;-81
2023/01/16 03:37:25;;;;;;;4.50;1.40;;;;;;;2.71;85.31;96635.16;4988654;28;20031;-81
2023/01/16 03:40:01;;;;;;;1.30;0.90;;;;;;;2.60;84.29;96623.50;4989283;28;20104;-81
2023/01/16 03:42:43;;;;;;;2.03;1.15;;;;;;;2.61;83.99;96604.38;4989620;28;20077;-81
2023/01/16 03:45:32;;;;;;;1.65;1.02;;;;;;;2.60;85.04;96603.59;4988553;28;20069;-81
2023/01/16 03:48:11;;;;;;;1.17;0.90;;;;;;;2.56;85.33;96591.19;4989659;28;20516;-81
2023/01/16 03:50:39;;;;;;;0.93;0.88;;;;;;;2.57;85.44;96592.78;4987458;28;20593;-81
2023/01/16 03:53:12;;;;;;;0.95;0.90;;;;;;;2.52;85.81;96579.59;4989319;28;20034;-81
2023/01/16 03:55:54;;;;;;;1.05;0.82;;;;;;;2.44;85.63;96584.91;4988790;28;20077;-81
2023/01/16 03:58:33;;;;;;;1.90;1.08;;;;;;;2.37;85.29;96579.69;4988625;28;20030;-81
2023/01/16 04:01:22;;;;;;;1.10;1.00;;;;;;;2.45;85.81;96583.91;4971684;28;20517;-81
2023/01/16 04:04:24;;;;;;;1.98;1.13;;;;;;;2.36;85.72;96567.72;4988664;28;20054;-81
2023/01/16 04:07:09;;;;;;;1.55;1.10;;;;;;;2.37;85.73;96564.94;4988584;28;20085;-81
2023/01/16 04:09:52;;;;;;;2.03;0.90;;;;;;;2.39;85.49;96568.13;4972106;28;20045;-81
2023/01/16 04:12:24;;;;;;;2.42;1.40;;;;;;;2.37;85.40;96559.78;4987359;28;20039;-81
2023/01/16 04:14:59;;;;;;;1.52;1.10;;;;;;;2.29;85.45;96554.75;4989550;28;20077;-81
2023/01/16 04:17:27;;;;;;;2.97;0.90;;;;;;;2.26;85.61;96552.50;4989174;28;20034;-81
2023/01/16 04:19:53;;;;;;;4.03;1.30;;;;;;;2.30;86.19;96556.34;4989495;28;20038;-81
2023/01/16 04:22:26;;;;;;;1.20;0.90;;;;;;;2.28;86.25;96550.56;4986839;28;20050;-81
2023/01/16 04:24:54;;;;;;;2.80;1.13;;;;;;;2.19;86.95;96543.88;4989640;28;20045;-81
2023/01/16 04:27:21;;;;;;;2.05;0.90;;;;;;;2.25;87.61;96535.38;4989674;28;20478;-81
2023/01/16 04:29:46;;;;;;;2.03;1.27;;;;;;;2.21;87.24;96528.97;4988599;28;20561;-81
2023/01/16 04:32:12;;;;;;;2.13;1.10;;;;;;;2.25;87.72;96522.44;4989646;28;20141;-81
2023/01/16 04:34:38;;;;;;;1.23;1.00;;;;;;;2.20;87.34;96514.44;4971982;28;20038;-81
2023/01/16 04:37:04;;;;;;;3.08;1.30;;;;;;;2.15;87.19;96515.00;4989253;28;20429;-81
2023/01/16 04:39:29;;;;;;;2.58;1.08;;;;;;;2.14;87.22;96504.84;4989971;28;20082;-81
2023/01/16 04:41:55;;;;;;;1.58;1.10;;;;;;;2.12;87.50;96509.41;4989214;28;20116;-81
2023/01/16 04:44:20;;;;;;;4.28;1.13;;;;;;;2.14;87.56;96499.66;4989473;28;20034;-81
2023/01/16 04:46:46;;;;;;;1.15;1.05;;;;;;;2.02;87.59;96496.78;4989276;28;20026;-81
2023/01/16 04:49:11;;;;;;;1.35;1.02;;;;;;;2.01;88.09;96494.38;4989173;28;20034;-81
2023/01/16 04:51:38;;;;;;;1.60;0.82;;;;;;;1.94;88.02;96483.19;4986536;28;20447;-81
2023/01/16 04:54:06;;;;;;;1.90;1.20;;;;;;;1.83;87.88;96487.84;4988616;28;20389;-81
2023/01/16 04:56:32;;;;;;;1.75;1.00;;;;;;;1.80;87.98;96471.88;4989457;28;20042;-81
2023/01/16 04:58:57;;;;;;;1.48;0.90;;;;;;;1.77;87.82;96473.06;4991053;28;20420;-81
2023/01/16 05:01:23;;;;;;;1.95;1.20;;;;;;;1.73;88.18;96466.66;4992744;28;20038;-81
2023/01/16 05:03:49;;;;;;;1.88;1.00;;;;;;;1.59;87.87;96459.75;4993313;28;20045;-81
2023/01/16 05:06:16;;;;;;;1.42;1.27;;;;;;;1.58;88.33;96447.81;4991247;28;20023;-81
2023/01/16 05:08:41;;;;;;;1.20;1.10;;;;;;;1.53;88.83;96450.16;4992522;28;20409;-81
2023/01/16 05:11:07;;;;;;;1.30;1.10;;;;;;;1.52;89.29;96445.97;4992504;28;20104;-81
2023/01/16 05:13:32;;;;;;;1.23;1.13;;;;;;;1.44;89.81;96446.91;4993166;28;20525;-80
2023/01/16 05:15:58;;;;;;;2.40;1.10;;;;;;;1.44;90.21;96433.16;4992948;28;20077;-81
2023/01/16 05:18:24;;;;;;;3.20;0.90;;;;;;;1.41;89.95;96438.69;4992534;28;20117;-81
2023/01/16 05:20:50;;;;;;;1.13;1.02;;;;;;;1.36;89.84;96428.09;4992312;28;20045;-81
2023/01/16 05:23:16;;;;;;;4.68;1.25;;;;;;;1.25;90.04;96422.41;4990383;28;20061;-80
2023/01/16 05:25:42;;;;;;;3.53;1.10;;;;;;;1.22;90.04;96416.84;4992626;28;20077;-82
2023/01/16 05:28:08;;;;;;;3.60;1.35;;;;;;;1.20;90.32;96418.78;4991111;28;20026;-81
2023/01/16 05:30:33;;;;;;;1.70;1.10;;;;;;;1.18;90.28;96418.16;4992012;28;20509;-81
2023/01/16 05:32:59;;;;;;;1.33;1.10;;;;;;;1.18;90.42;96416.38;4992675;28;20112;-81
2023/01/16 05:35:25;;;;;;;1.08;1.00;;;;;;;1.16;90.41;96407.22;4992420;28;20510;-81
2023/01/16 05:37:51;;;;;;;1.30;1.20;;;;;;;1.08;90.49;96390.06;4992302;28;20500;-81
2023/01/16 05:40:17;;;;;;;1.10;0.85;;;;;;;1.04;90.89;96391.41;4971697;28;20070;-81
2023/01/16 05:42:43;;;;;;;3.75;1.30;;;;;;;1.03;91.25;96382.84;4992099;28;20044;-81
2023/01/16 05:45:09;;;;;;;2.15;1.13;;;;;;;1.00;91.13;96379.81;4992018;28;20105;-80
2023/01/16 05:47:35;;;;;;;1.42;1.13;;;;;;;1.01;90.92;96369.31;4992083;28;20042;-81
2023/01/16 05:50:01;;;;;;;2.83;1.20;;;;;;;1.02;90.63;96377.84;4992435;28;20714;-81
2023/01/16 05:52:27;;;;;;;1.27;0.98;;;;;;;0.93;90.13;96371.22;4991629;28;20498;-81
2023/01/16 05:54:53;;;;;;;2.13;1.20;;;;;;;1.02;90.40;96386.44;4990061;28;20560;-80
2023/01/16 05:57:20;;;;;;;1.33;1.08;;;;;;;1.04;90.25;96373.34;4991786;28;20038;-81
2023/01/16 05:59:52;;;;;;;1.70;1.27;;;;;;;1.03;90.77;96361.41;4991737;28;20034;-81
2023/01/16 06:02:19;;;;;;;1.42;1.20;;;;;;;1.03;90.18;96367.38;4990403;28;20433;-81
2023/01/16 06:04:45;;;;;;;3.40;1.20;;;;;;;0.99;90.33;96360.97;4991234;28;20038;-81
2023/01/16 06:07:11;;;;;;;1.65;1.25;;;;;;;0.94;90.87;96358.13;4991830;28;20030;-81
2023/01/16 06:09:37;;;;;;;2.83;1.20;;;;;;;0.94;90.92;96347.00;4991189;28;20036;-81
2023/01/16 06:12:03;;;;;;;0.95;0.95;;;;;;;0.86;90.98;96341.94;4982128;28;20022;-81
2023/01/16 06:14:28;;;;;;;4.20;1.48;;;;;;;0.84;91.55;96341.31;4991316;28;20038;-82
2023/01/16 06:16:54;;;;;;;2.35;1.20;;;;;;;0.77;91.59;96318.81;4990853;28;20034;-81
2023/01/16 06:19:19;;;;;;;2.50;1.30;;;;;;;0.86;91.97;96323.88;4990938;28;20035;-81
2023/01/16 06:21:45;;;;;;;1.85;1.10;;;;;;;0.81;91.44;96319.25;4988204;28;20049;-80
2023/01/16 06:24:10;;;;;;;3.20;1.30;;;;;;;0.77;91.64;96311.06;4991391;28;20034;-81
2023/01/16 06:26:36;;;;;;;1.83;1.13;;;;;;;0.77;91.55;96298.16;4990901;28;20030;-81
2023/01/16 06:29:01;;;;;;;2.92;1.25;;;;;;;0.83;91.80;96308.75;4990573;28;20026;-81
2023/01/16 06:31:27;;;;;;;1.20;1.10;;;;;;;0.80;91.63;96299.59;4991262;28;20038;-81
2023/01/16 06:33:52;;;;;;;2.28;1.33;;;;;;;0.75;91.35;96292.41;4990680;28;20106;-80
2023/01/16 06:36:18;;;;;;;2.17;1.30;;;;;;;0.77;91.82;96289.63;4991050;28;20036;-81
2023/01/16 06:38:44;;;;;;;1.25;1.15;;;;;;;0.77;91.49;96287.84;4990855;28;20064;-81
2023/01/16 06:41:10;;;;;;;1.70;1.05;;;;;;;0.79;91.82;96283.31;4990275;28;20498;-81
2023/01/16 06:43:36;;;;;;;3.65;1.25;;;;;;;0.80;91.95;96284.91;4990908;28;20046;-81
2023/01/16 06:46:02;;;;;;;2.25;1.08;;;;;;;0.82;91.70;96269.25;4990907;28;20022;-81
2023/01/16 06:48:28;;;;;;;1.73;1.13;;;;;;;0.84;92.02;96275.03;4990778;28;20042;-81
2023/01/16 06:50:53;;;;;;;2.85;1.88;;;;;;;0.82;91.89;96271.03;4989930;28;20038;-80
2023/01/16 06:53:19;;;;;;;2.17;1.30;;;;;;;0.75;91.59;96260.63;4990536;28;20042;-81
2023/01/16 06:55:45;;;;;;;2.33;1.40;;;;;;;0.80;92.14;96256.53;4990062;28;20114;-81
2023/01/16 06:58:11;;;;;;;1.48;1.10;;;;;;;0.77;91.79;96245.75;4990648;28;20386;-81
2023/01/16 07:00:37;;;;;;;2.25;1.40;;;;;;;0.79;91.97;96241.22;4983161;28;20042;-80
2023/01/16 07:03:03;;;;;;;2.30;1.40;;;;;;;0.77;92.15;96230.28;4988544;28;20034;-81
2023/01/16 07:05:31;;;;;;;3.38;1.27;;;;;;;0.76;91.91;96221.72;4989989;28;20612;-81
2023/01/16 07:07:57;;;;;;;1.65;1.35;;;;;;;0.74;92.02;96228.88;4989285;28;20034;-81
2023/01/16 07:10:23;;;;;;;1.35;1.25;;;;;;;0.70;91.82;96222.47;4990396;28;20038;-81
2023/01/16 07:12:52;;;;;;;1.55;1.33;;;;;;;0.77;92.31;96214.78;4987536;28;20438;-81
2023/01/16 07:23:45;;;;;;;3.08;1.60;;;;;;;0.88;91.42;96198.03;4984403;28;20038;-82
2023/01/16 07:26:18;;;;;;;2.00;1.52;;;;;;;0.93;91.08;96195.69;4988614;28;20033;-82
2023/01/16 07:28:46;;;;;;;4.90;1.50;;;;;;;0.95;91.10;96178.22;4970383;28;20104;-82
2023/01/16 07:31:13;;;;;;;1.40;1.30;;;;;;;1.00;90.63;96173.31;4988585;28;20418;-82
2023/01/16 07:33:38;;;;;;;2.17;1.33;;;;;;;1.15;90.37;96171.44;4988348;28;20053;-82
2023/01/16 07:36:04;;;;;;;1.80;1.08;;;;;;;1.20;89.99;96166.53;4989001;28;20432;-82
2023/01/16 07:38:30;;;;;;;2.00;1.20;;;;;;;1.23;89.03;96149.84;4988633;28;20454;-82
2023/01/16 07:40:56;;;;;;;1.70;1.25;;;;;;;1.27;88.63;96151.88;4989528;28;20037;-82
2023/01/16 07:43:21;;;;;;;2.35;1.30;;;;;;;1.37;88.06;96150.72;4989203;28;20069;-82
2023/01/16 07:45:52;;;;;;;3.45;1.30;;;;;;;1.35;88.07;96135.41;4988817;28;20036;-82
2023/01/16 07:48:19;;;;;;;5.43;1.20;;;;;;;1.37;87.23;96136.03;4988893;28;20050;-82
2023/01/16 07:50:57;;;;;;;2.75;1.48;;;;;;;1.47;87.13;96128.75;4989484;28;20027;-82
2023/01/16 07:53:26;;;;;;;2.33;1.38;;;;;;;1.52;86.68;96120.44;4987791;28;20383;-82
2023/01/16 07:55:56;;;;;;;5.82;1.52;;;;;;;1.62;86.33;96118.31;4987531;28;20490;-81
2023/01/16 07:58:22;;;;;;;3.08;1.23;;;;;;;1.70;85.54;96102.63;4988663;28;20088;-82
2023/01/16 08:00:51;;;;;;;1.50;1.10;;;;;;;1.75;85.24;96092.50;4987539;28;20030;-81
2023/01/16 08:03:16;;;;;;;2.13;0.85;;;;;;;1.79;84.71;96093.69;4989948;28;20045;-82
2023/01/16 08:05:45;;;;;;;2.58;1.20;;;;;;;1.97;84.51;96089.78;4988830;28;20034;-81
2023/01/16 08:08:12;;;;;;;1.67;1.48;;;;;;;2.02;83.88;96097.75;4987297;28;20030;-82
2023/01/16 08:10:39;;;;;;;4.32;2.05;;;;;;;2.13;83.46;96086.84;4984227;28;20042;-82
2023/01/16 08:13:05;;;;;;;2.72;1.60;;;;;;;2.07;82.01;96080.66;4987395;28;20719;-81
2023/01/16 08:15:31;;;;;;;2.33;1.40;;;;;;;2.13;82.17;96063.56;4997569;28;20203;-81
2023/01/16 08:17:56;;;;;;;1.77;1.60;;;;;;;2.28;81.84;96074.56;5004696;28;20113;-81
2023/01/16 08:20:24;;;;;;;2.58;1.40;;;;;;;2.36;81.09;96064.03;5006930;28;20037;-82
2023/01/16 08:22:51;;;;;;;3.63;1.63;;;;;;;2.45;80.96;96074.16;5003060;28;20030;-82
2023/01/16 08:25:21;;;;;;;1.50;1.20;;;;;;;2.47;81.10;96073.00;5006794;28;20126;-81
2023/01/16 08:27:47;;;;;;;1.77;1.30;;;;;;;2.65;80.65;96062.84;5007634;28;20784;-80
2023/01/16 08:30:15;;;;;;;2.10;1.60;;;;;;;2.81;80.99;96048.69;5004399;28;20128;-81
2023/01/16 08:32:41;;;;;;;1.63;1.48;;;;;;;2.80;79.45;96043.72;5008730;28;20040;-82
2023/01/16 08:35:08;;;;;;;1.70;1.17;;;;;;;2.75;78.69;96026.19;5009162;28;20124;-82
2023/01/16 08:37:33;;;;;;;2.28;1.42;;;;;;;2.87;78.80;96024.56;5009252;28;20519;-81
2023/01/16 08:40:00;;;;;;;4.57;1.77;;;;;;;2.91;77.84;96015.41;5010893;28;20145;-82
2023/01/16 08:53:28;;;;;;;3.88;2.65;;;;;;;3.72;75.14;95980.47;5011721;28;20052;-79
2023/01/16 08:55:53;;;;;;;2.40;1.88;;;;;;;3.89;73.78;95975.56;5011912;28;20034;-78
2023/01/16 08:58:22;;;;;;;3.92;3.13;;;;;;;4.03;72.30;95967.50;5010737;28;20057;-79
2023/01/16 09:00:49;;;;;;;4.18;2.17;;;;;;;4.12;71.39;95969.84;5011877;28;20413;-80
2023/01/16 09:03:18;;;;;;;6.93;1.95;;;;;;;4.11;70.76;95963.06;5011850;28;20037;-79
2023/01/16 09:05:44;;;;;;;2.60;2.40;;;;;;;4.03;70.79;95946.75;5011498;28;20061;-80
2023/01/16 09:08:10;;;;;;;2.05;1.73;;;;;;;4.36;70.91;95966.44;5011592;28;20105;-79
2023/01/16 09:10:36;;;;;;;1.92;1.50;;;;;;;4.36;70.35;95968.25;5011449;28;20673;-79
2023/01/16 09:15:47;;;;;;;2.92;1.30;;;;;;;4.48;69.09;95944.00;4998531;28;20130;-79
2023/01/16 09:18:12;;;;;;;1.00;0.80;;;;;;;4.59;68.80;95959.88;4992089;28;20113;-79
2023/01/16 09:20:38;;;;;;;1.05;0.95;;;;;;;4.59;68.99;95955.47;4991477;28;21642;-79
2023/01/16 09:23:04;;;;;;;7.90;4.78;;;;;;;4.72;70.14;95951.97;4989271;28;20045;-79
2023/01/16 09:25:32;;;;;;;14.07;9.93;;;;;;;4.64;69.00;95941.88;4991627;28;20037;-79
2023/01/16 09:27:58;;;;;;;2.80;1.77;;;;;;;4.61;67.74;95927.50;4990052;28;20034;-79
2023/01/16 09:30:26;;;;;;;2.15;1.02;;;;;;;4.65;67.56;95928.66;4991187;28;20720;-79
2023/01/16 09:32:51;;;;;;;2.25;1.20;;;;;;;4.74;68.34;95924.78;4991705;28;20089;-79
2023/01/16 09:35:17;;;;;;;3.33;2.00;;;;;;;4.80;67.68;95910.16;4991151;28;20086;-79
2023/01/16 09:37:44;;;;;;;4.20;1.20;;;;;;;4.90;67.27;95907.81;4991447;28;20068;-79
2023/01/16 09:40:19;;;;;;;2.58;1.52;;;;;;;5.07;67.08;95913.22;4991002;28;20035;-79
2023/01/16 09:43:38;;;;;;;6.25;1.40;;;;;;;5.20;67.38;95899.28;4990586;28;20065;-79
2023/01/16 09:46:15;;;;;;;0.88;0.88;;;;;;;5.25;66.06;95886.44;4990228;28;20026;-79
2023/01/16 09:49:11;;;;;;;1.00;0.95;;;;;;;5.45;66.08;95886.94;4989882;28;20034;-79
2023/01/16 09:58:35;;;;;;;1.70;0.88;;;;;;;5.59;66.10;95883.16;5005606;28;20069;-82
2023/01/16 10:00:21;;;;;;;1.00;0.90;;;;;;;5.91;64.72;95877.72;4990784;28;20060;-82
2023/01/16 10:02:47;;;;;;;3.65;1.05;;;;;;;5.75;61.97;95865.31;4991027;28;20498;-82
2023/01/16 10:05:13;;;;;;;1.30;0.90;;;;;;;5.77;61.99;95864.09;4989922;28;20064;-82
2023/01/16 10:07:39;;;;;;;0.77;0.77;;;;;;;5.78;61.61;95860.47;4990754;28;20042;-82
2023/01/16 10:10:32;;;;;;;0.63;0.60;;;;;;;5.73;62.45;95852.56;4990368;28;20065;-82
2023/01/16 10:13:28;;;;;;;2.60;0.90;;;;;;;5.71;63.08;95843.41;4990456;28;20101;-82
2023/01/16 10:16:38;;;;;;;0.88;0.80;;;;;;;5.79;62.02;95840.47;4989739;28;20039;-82
2023/01/16 10:19:17;;;;;;;1.75;0.80;;;;;;;5.99;63.48;95838.34;4989842;28;20049;-81
2023/01/16 10:22:12;;;;;;;1.17;0.60;;;;;;;5.92;61.01;95809.06;4987042;28;20042;-81
2023/01/16 10:24:55;;;;;;;1.88;0.70;;;;;;;6.00;62.02;95798.31;4990343;28;20042;-81
2023/01/16 10:27:50;;;;;;;1.75;0.88;;;;;;;6.14;62.06;95797.06;4988336;28;20034;-82
2023/01/16 10:30:30;;;;;;;3.15;0.85;;;;;;;6.07;60.82;95790.41;4989497;28;20041;-82
2023/01/16 10:33:20;;;;;;;3.22;0.90;;;;;;;6.06;60.31;95776.59;4989424;28;20038;-81
2023/01/16 10:35:50;;;;;;;1.15;0.90;;;;;;;6.24;61.43;95785.28;4989632;28;20117;-81
2023/01/16 10:38:42;;;;;;;0.70;0.70;;;;;;;6.21;58.92;95765.72;4990976;28;20039;-82
2023/01/16 10:50:13;;;;;;;1.42;0.80;;;;;;;6.05;58.99;95741.16;4988613;28;20045;-82
2023/01/16 10:52:40;;;;;;;1.60;0.80;;;;;;;6.00;59.65;95741.09;4989505;28;20030;-82
2023/01/16 10:55:08;;;;;;;1.02;0.80;;;;;;;6.09;60.04;95742.31;4988835;28;20447;-82
2023/01/16 10:57:38;;;;;;;1.33;0.60;;;;;;;6.09;58.29;95737.09;4989279;28;20042;-81
2023/01/16 11:00:18;;;;;;;1.92;0.82;;;;;;;6.22;59.05;95733.47;4989136;28;20042;-82
2023/01/16 11:02:47;;;;;;;0.73;0.60;;;;;;;6.24;57.72;95730.63;4988274;28;20037;-82
2023/01/16 11:05:42;;;;;;;2.55;0.77;;;;;;;6.40;58.20;95716.88;4987282;28;20046;-81
2023/01/16 11:08:19;;;;;;;0.70;0.70;;;;;;;6.64;57.94;95707.97;4976638;28;20050;-81
2023/01/16 11:10:48;;;;;;;0.90;0.70;;;;;;;6.69;56.67;95689.06;4990346;28;20069;-82
2023/01/16 11:19:21;;;;;;;1.20;0.90;;;;;;;6.77;57.13;95662.59;4988917;28;20073;-81
2023/01/16 11:22:10;;;;;;;1.08;0.68;;;;;;;6.71;55.83;95653.91;4987173;28;20409;-81
2023/01/16 11:24:44;;;;;;;0.65;0.60;;;;;;;6.70;55.80;95636.72;4989044;28;20034;-81
2023/01/16 11:27:23;;;;;;;1.50;0.65;;;;;;;6.53;56.67;95641.09;4988474;28;20065;-82
2023/01/16 11:29:55;;;;;;;2.15;0.88;;;;;;;6.70;56.11;95644.53;4987857;28;20038;-81
2023/01/16 11:32:24;;;;;;;1.33;0.88;;;;;;;6.91;55.98;95630.03;4988215;28;20038;-81
2023/01/16 11:34:57;;;;;;;1.50;0.98;;;;;;;6.89;56.58;95619.03;4988724;28;20040;-80
2023/01/16 11:37:28;;;;;;;1.48;0.82;;;;;;;6.83;55.31;95616.59;4988416;28;20117;-81
2023/01/16 11:39:59;;;;;;;0.77;0.70;;;;;;;6.76;55.43;95614.13;4988175;28;20038;-82
2023/01/16 11:48:23;;;;;;;1.50;0.82;;;;;;;6.82;56.79;95604.59;4988581;28;20030;-82
2023/01/16 11:50:57;;;;;;;1.10;0.82;;;;;;;6.81;57.76;95598.59;4989145;28;20030;-82
2023/01/16 11:53:30;;;;;;;1.73;0.90;;;;;;;6.76;57.20;95589.91;4988103;28;20030;-82
2023/01/16 11:56:04;;;;;;;2.20;0.95;;;;;;;6.75;57.15;95578.69;4987963;28;20080;-81
2023/01/16 11:59:06;;;;;;;1.42;1.00;;;;;;;6.65;56.62;95558.47;4988043;28;20038;-82
2023/01/16 12:02:15;;;;;;;2.65;1.38;;;;;;;6.63;56.52;95547.53;4988527;28;20450;-82
2023/01/16 12:05:53;;;;;;;1.10;1.00;;;;;;;6.63;56.83;95525.91;4987390;28;20536;-82
2023/01/16 12:08:20;;;;;;;1.65;1.10;;;;;;;6.49;56.80;95515.00;4986750;28;20034;-82
2023/01/16 12:11:07;;;;;;;3.08;1.45;;;;;;;6.52;56.98;95517.13;4966086;28;20038;-82
2023/01/16 12:17:28;;;;;;;2.65;1.05;;;;;;;6.72;58.54;95514.06;5007399;28;20034;-82
2023/01/16 12:20:51;;;;;;;4.95;1.70;;;;;;;6.56;56.36;95525.28;4962678;28;20049;-82
2023/01/16 12:23:40;;;;;;;2.72;1.20;;;;;;;6.63;58.03;95513.66;4972228;28;20045;-81
2023/01/16 12:26:12;;;;;;;4.45;1.88;;;;;;;6.63;58.11;95505.84;4990638;28;20138;-82
2023/01/16 12:29:03;;;;;;;5.82;1.20;;;;;;;6.65;57.59;95501.19;5006335;28;20088;-82
2023/01/16 12:31:56;;;;;;;2.67;1.23;;;;;;;6.66;56.54;95496.78;5009399;28;20489;-82
2023/01/16 12:35:15;;;;;;;1.10;0.82;;;;;;;6.58;55.61;95505.75;4990842;28;20718;-82
2023/01/16 12:38:29;;;;;;;1.55;1.10;;;;;;;6.58;56.85;95508.38;4963342;28;20133;-82
2023/01/16 12:44:17;;;;;;;5.88;1.50;;;;;;;6.80;58.43;95515.47;5006508;28;20539;-81
2023/01/16 12:47:10;;;;;;;2.95;1.30;;;;;;;6.81;56.64;95519.66;5006206;28;20034;-82
2023/01/16 12:49:52;;;;;;;3.35;0.93;;;;;;;6.72;56.23;95511.47;5005374;28;20069;-82
2023/01/16 12:52:58;;;;;;;2.08;1.20;;;;;;;6.74;55.81;95506.00;5008318;28;20068;-82
2023/01/16 12:55:52;;;;;;;1.38;1.10;;;;;;;6.74;56.35;95504.19;5007304;28;20042;-81
2023/01/16 12:58:23;;;;;;;1.98;1.10;;;;;;;6.81;56.18;95509.22;5008244;28;20034;-82
2023/01/16 13:01:17;;;;;;;3.85;1.05;;;;;;;6.82;56.21;95500.38;5007682;28;20671;-82
2023/01/16 13:03:55;;;;;;;1.85;1.00;;;;;;;6.82;56.63;95508.19;5006348;28;20040;-82
2023/01/16 13:06:44;;;;;;;2.15;1.00;;;;;;;6.80;56.20;95502.44;5007092;28;20048;-81
2023/01/16 13:09:34;;;;;;;2.05;1.10;;;;;;;6.66;56.32;95500.19;5006995;28;20385;-82
2023/01/16 13:15:15;;;;;;;1.48;1.00;;;;;;;6.55;57.66;95482.81;5000085;28;20105;-82
2023/01/16 13:17:47;;;;;;;1.88;1.00;;;;;;;6.63;56.89;95486.81;4986058;28;20556;-81